Time;durP1;ratioP1;P1;durP2;ratioP2;P2;SDS_P1;SDS_P2;PMS_P1;PMS_P2;Temp;Humidity;BMP_temperature;BMP_pressure;BME280_temperature;BME280_humidity;BME280_pressure;Samples;Min_cycle;Max_cycle;Signal;HPM_P1;HPM_P2
2023/01/25 00:00:33;;;;;;;11.05;5.90;;;;;;;1.04;100.00;62105.59;4977656;28;20208;-79
2023/01/25 00:03:00;;;;;;;9.52;6.22;;;;;;;1.08;100.00;62109.72;4971138;29;20259;-79
2023/01/25 00:05:27;;;;;;;8.88;6.63;;;;;;;1.25;100.00;62131.63;4970526;29;20237;-80
2023/01/25 00:07:54;;;;;;;7.85;6.15;;;;;;;1.28;100.00;62131.72;4972922;28;20235;-79
2023/01/25 00:10:21;;;;;;;6.95;6.25;;;;;;;1.00;100.00;62106.50;4990209;28;20227;-79
2023/01/25 00:12:48;;;;;;;9.00;6.88;;;;;;;0.97;100.00;62098.41;4989741;28;20244;-80
2023/01/25 00:15:16;;;;;;;9.05;5.97;;;;;;;0.88;100.00;62086.19;4990886;28;20208;-80
2023/01/25 00:17:45;;;;;;;7.93;6.28;;;;;;;0.77;100.00;62082.41;4989527;28;20247;-79
2023/01/25 00:20:12;;;;;;;10.18;7.70;;;;;;;1.02;100.00;62103.53;4990867;28;20244;-79
2023/01/25 00:22:39;;;;;;;14.05;7.13;;;;;;;1.19;100.00;62123.50;4990966;28;20232;-79
2023/01/25 00:25:06;;;;;;;12.75;6.82;;;;;;;1.18;100.00;62119.97;4990900;28;20524;-81
2023/01/25 00:27:33;;;;;;;9.40;6.43;;;;;;;1.24;100.00;62123.09;4988149;28;20615;-81
2023/01/25 00:30:00;;;;;;;11.48;6.63;;;;;;;1.13;100.00;62119.34;4990319;28;20207;-80
2023/01/25 00:32:54;;;;;;;11.00;6.07;;;;;;;1.08;100.00;62109.72;4993319;28;20231;-80
2023/01/25 00:35:21;;;;;;;10.77;7.07;;;;;;;1.10;100.00;62116.25;4988510;28;20209;-79
2023/01/25 00:37:52;;;;;;;10.30;6.70;;;;;;;1.16;100.00;62119.91;4972779;28;20247;-79
2023/01/25 00:40:20;;;;;;;9.07;6.05;;;;;;;1.08;100.00;62111.69;4985385;28;20557;-79
2023/01/25 00:42:47;;;;;;;9.43;6.97;;;;;;;1.17;100.00;62121.44;4969554;29;20225;-80
2023/01/25 00:45:14;;;;;;;9.35;6.95;;;;;;;1.23;100.00;62124.06;4978124;28;20208;-78
2023/01/25 00:47:42;;;;;;;11.40;7.55;;;;;;;1.13;100.00;62114.84;4969725;28;20240;-80
2023/01/25 00:50:11;;;;;;;9.27;6.82;;;;;;;1.25;100.00;62129.13;4970535;29;20410;-81
2023/01/25 00:52:40;;;;;;;12.23;6.47;;;;;;;1.17;100.00;62121.44;4970225;29;20373;-80
2023/01/25 00:55:08;;;;;;;13.23;6.93;;;;;;;1.15;100.00;62118.88;4977319;28;20220;-79
2023/01/25 00:57:39;;;;;;;12.48;7.00;;;;;;;1.29;100.00;62135.22;4989929;28;20247;-79
2023/01/25 01:00:08;;;;;;;7.00;5.82;;;;;;;1.33;100.00;62137.34;4990738;28;20220;-80
2023/01/25 01:02:34;;;;;;;10.18;6.63;;;;;;;1.33;100.00;62136.84;4991057;28;20251;-79
2023/01/25 01:05:02;;;;;;;10.05;6.82;;;;;;;1.36;100.00;62140.44;4987828;28;20569;-80
2023/01/25 01:07:30;;;;;;;10.13;7.20;;;;;;;1.43;100.00;62147.09;4989307;28;20270;-80
2023/01/25 01:09:59;;;;;;;8.57;6.53;;;;;;;1.48;100.00;62149.72;4989992;28;20520;-79
2023/01/25 01:12:26;;;;;;;8.60;6.05;;;;;;;1.39;100.00;62140.47;4990399;28;20244;-80
2023/01/25 01:14:53;;;;;;;7.55;5.47;;;;;;;1.11;100.00;62117.78;4989977;28;20292;-78
2023/01/25 01:17:21;;;;;;;7.00;5.57;;;;;;;0.93;100.00;62096.31;4990721;28;20226;-80
2023/01/25 01:19:48;;;;;;;8.60;4.97;;;;;;;0.86;100.00;62084.13;4987976;28;20279;-78
2023/01/25 01:22:15;;;;;;;7.85;5.72;;;;;;;0.79;100.00;62079.97;4988455;28;20251;-80
2023/01/25 01:24:44;;;;;;;8.02;5.95;;;;;;;1.02;100.00;62103.03;4990167;28;20200;-80
2023/01/25 01:27:12;;;;;;;6.47;4.93;;;;;;;1.14;100.00;62115.34;4989035;28;20450;-79
2023/01/25 01:29:38;;;;;;;7.85;4.80;;;;;;;1.20;100.00;62124.00;4990348;28;20526;-80
2023/01/25 01:32:06;;;;;;;5.45;4.88;;;;;;;1.06;100.00;62107.13;4974964;28;20457;-81
2023/01/25 01:34:33;;;;;;;7.40;5.25;;;;;;;1.17;100.00;62118.44;4969317;28;20215;-79
2023/01/25 01:37:00;;;;;;;9.20;5.45;;;;;;;1.16;100.00;62112.38;4975510;28;20232;-79
2023/01/25 01:39:27;;;;;;;6.38;5.60;;;;;;;1.02;100.00;62103.03;4989755;28;20319;-81
2023/01/25 01:41:56;;;;;;;5.68;4.78;;;;;;;0.86;100.00;62086.63;4989176;28;20421;-80
2023/01/25 01:44:44;;;;;;;6.35;5.15;;;;;;;0.79;100.00;62082.47;4990335;28;20204;-80
2023/01/25 01:47:16;;;;;;;7.28;5.45;;;;;;;1.04;100.00;62107.59;4988770;28;20228;-79
2023/01/25 01:49:54;;;;;;;5.85;4.90;;;;;;;1.15;100.00;62116.38;4986317;28;20200;-81
2023/01/25 01:52:24;;;;;;;7.90;4.82;;;;;;;1.14;100.00;62120.34;4987140;28;20220;-79
2023/01/25 01:54:58;;;;;;;8.05;5.30;;;;;;;1.26;100.00;62129.66;4990656;28;20208;-81
2023/01/25 01:57:32;;;;;;;8.40;5.65;;;;;;;1.35;100.00;62136.38;4987554;28;20494;-79
2023/01/25 02:00:04;;;;;;;6.95;5.10;;;;;;;1.30;100.00;62133.75;4980778;28;20220;-80
2023/01/25 02:02:31;;;;;;;6.15;5.22;;;;;;;1.33;100.00;62136.84;4987203;28;20596;-80
2023/01/25 02:05:01;;;;;;;7.72;4.80;;;;;;;1.41;100.00;62143.06;4988562;28;20228;-81
2023/01/25 02:07:32;;;;;;;7.38;5.25;;;;;;;1.38;100.00;62141.97;4990675;28;20228;-80
2023/01/25 02:10:00;;;;;;;8.68;5.40;;;;;;;1.36;100.00;62137.91;4989170;28;20204;-78
2023/01/25 02:12:29;;;;;;;9.35;5.10;;;;;;;1.43;100.00;62147.63;4988055;28;20286;-81
2023/01/25 02:14:56;;;;;;;6.60;4.45;;;;;;;1.41;100.00;62145.56;4988041;28;20215;-80
2023/01/25 02:17:27;;;;;;;5.85;4.57;;;;;;;1.46;100.00;62147.66;4987927;28;20224;-79
2023/01/25 02:20:00;;;;;;;7.15;4.85;;;;;;;1.39;100.00;62141.00;4979584;28;20299;-78
2023/01/25 02:22:37;;;;;;;5.15;4.28;;;;;;;1.43;100.00;62149.59;4968363;28;20229;-79
2023/01/25 02:25:08;;;;;;;5.82;4.05;;;;;;;1.33;100.00;62137.34;4986722;28;20270;-82
2023/01/25 02:27:39;;;;;;;4.43;4.03;;;;;;;1.29;100.00;62128.22;4988176;28;20235;-79
2023/01/25 02:30:08;;;;;;;4.25;3.78;;;;;;;1.37;100.00;62135.91;4971215;28;20252;-80
2023/01/25 02:32:35;;;;;;;3.88;3.55;;;;;;;1.31;100.00;62137.81;4971096;28;20224;-79
2023/01/25 02:35:02;;;;;;;4.38;3.80;;;;;;;1.28;100.00;62129.19;4987849;28;20219;-80
2023/01/25 02:37:29;;;;;;;4.55;4.15;;;;;;;1.29;100.00;62130.75;4988126;28;20296;-78
2023/01/25 02:39:56;;;;;;;3.25;2.95;;;;;;;1.30;100.00;62131.75;4987489;28;20246;-80
2023/01/25 02:42:25;;;;;;;3.63;3.33;;;;;;;1.27;100.00;62128.16;4986994;28;20235;-79
2023/01/25 02:44:52;;;;;;;4.95;3.60;;;;;;;1.14;100.00;62113.34;4988971;28;20361;-79
2023/01/25 02:47:19;;;;;;;3.35;3.10;;;;;;;1.08;100.00;62109.19;4987456;28;20259;-79
2023/01/25 02:49:47;;;;;;;3.88;3.50;;;;;;;0.91;100.00;62091.75;4988897;28;20204;-79
2023/01/25 02:52:14;;;;;;;3.88;3.47;;;;;;;0.82;100.00;62082.53;4986755;28;20220;-81
2023/01/25 02:54:41;;;;;;;4.45;3.28;;;;;;;0.55;100.00;62055.34;4988073;28;20212;-79
2023/01/25 02:57:09;;;;;;;5.18;3.60;;;;;;;0.69;100.00;62074.22;4970757;28;20268;-80
2023/01/25 02:59:37;;;;;;;4.38;3.30;;;;;;;0.64;100.00;62062.06;4975723;28;20246;-78
2023/01/25 03:02:04;;;;;;;5.90;3.88;;;;;;;0.75;100.00;62075.34;4987945;28;20243;-78
2023/01/25 03:04:31;;;;;;;3.38;3.08;;;;;;;0.71;100.00;62074.25;4989520;28;20204;-81
2023/01/25 03:06:57;;;;;;;3.80;3.40;;;;;;;0.69;100.00;62069.19;4972598;28;20264;-79
2023/01/25 03:09:25;;;;;;;4.60;3.35;;;;;;;0.69;100.00;62072.19;4978165;28;20222;-79
2023/01/25 03:11:52;;;;;;;4.28;3.88;;;;;;;0.67;100.00;62067.66;4984403;28;20522;-79
2023/01/25 03:14:19;;;;;;;5.32;3.92;;;;;;;0.86;100.00;62086.63;4982495;28;20263;-79
2023/01/25 03:16:47;;;;;;;4.13;3.53;;;;;;;0.69;100.00;62072.19;4992533;28;20263;-80
2023/01/25 03:19:14;;;;;;;3.53;3.20;;;;;;;0.70;100.00;62072.72;4989465;28;20433;-78
2023/01/25 03:21:42;;;;;;;3.58;3.22;;;;;;;0.49;100.00;62051.69;4991098;28;20262;-81
2023/01/25 03:24:11;;;;;;;4.63;3.63;;;;;;;0.47;100.00;62046.63;4972680;28;20213;-80
2023/01/25 03:29:19;;;;;;;3.92;3.30;;;;;;;0.52;100.00;62054.78;4992184;28;20248;-79
2023/01/25 03:31:48;;;;;;;4.10;3.72;;;;;;;0.58;100.00;62058.44;4990080;28;20224;-79
2023/01/25 03:34:15;;;;;;;6.47;4.30;;;;;;;0.51;100.00;62053.25;4990182;28;20539;-79
2023/01/25 03:36:42;;;;;;;5.43;3.13;;;;;;;0.55;100.00;62059.84;4986305;28;20224;-78
2023/01/25 03:39:09;;;;;;;4.38;3.97;;;;;;;0.20;100.00;62021.47;4991081;28;20227;-80
2023/01/25 03:41:36;;;;;;;4.07;3.70;;;;;;;0.52;100.00;62051.78;4983688;28;20229;-80
2023/01/25 03:44:03;;;;;;;3.40;3.10;;;;;;;0.71;100.00;62071.22;4971139;29;20212;-81
2023/01/25 03:46:30;;;;;;;3.70;3.40;;;;;;;0.59;100.00;62061.44;4987391;28;20224;-78
2023/01/25 03:48:59;;;;;;;5.38;4.28;;;;;;;0.47;100.00;62044.63;4990016;28;20255;-78
2023/01/25 03:51:26;;;;;;;7.82;4.45;;;;;;;0.66;100.00;62069.13;5005449;28;20227;-79
2023/01/25 03:53:53;;;;;;;7.35;5.30;;;;;;;0.73;100.00;62073.81;5005933;28;20204;-78
2023/01/25 03:56:20;;;;;;;6.70;4.63;;;;;;;0.62;100.00;62065.03;4990787;28;20231;-79
2023/01/25 03:58:47;;;;;;;3.92;3.35;;;;;;;0.62;100.00;62065.03;4989146;28;20490;-80
2023/01/25 04:01:14;;;;;;;5.47;3.55;;;;;;;0.70;100.00;62070.72;4989695;28;20224;-80
2023/01/25 04:03:41;;;;;;;3.78;3.40;;;;;;;0.75;100.00;62080.88;4989639;28;20219;-81
2023/01/25 04:06:10;;;;;;;4.15;3.75;;;;;;;0.81;100.00;62082.00;4990553;28;20287;-79
2023/01/25 04:08:37;;;;;;;4.80;3.65;;;;;;;0.94;100.00;62095.34;4991681;28;20200;-80
2023/01/25 04:11:06;;;;;;;4.15;3.75;;;;;;;0.89;100.00;62090.22;5008789;28;20227;-78
2023/01/25 04:13:35;;;;;;;4.07;3.53;;;;;;;0.82;100.00;62085.53;4992825;28;20208;-80
2023/01/25 04:16:03;;;;;;;3.50;3.20;;;;;;;0.50;100.00;62049.72;4990449;28;20288;-79
2023/01/25 04:18:30;;;;;;;5.32;3.83;;;;;;;0.55;100.00;62055.34;4989405;28;20204;-78
2023/01/25 04:20:57;;;;;;;3.83;3.47;;;;;;;0.74;100.00;62076.81;4999518;28;20267;-78
2023/01/25 04:23:27;;;;;;;4.15;3.75;;;;;;;0.65;100.00;62067.59;4988047;28;20208;-77
2023/01/25 04:25:54;;;;;;;4.65;3.85;;;;;;;0.77;100.00;62077.91;4990253;28;20215;-78
2023/01/25 04:28:22;;;;;;;6.35;3.80;;;;;;;0.77;100.00;62079.91;4988466;28;20216;-78
2023/01/25 04:30:49;;;;;;;5.22;4.05;;;;;;;0.54;100.00;62051.81;4986793;28;20385;-78
2023/01/25 04:33:16;;;;;;;4.90;3.15;;;;;;;0.53;100.00;62053.31;4987216;28;20232;-77
2023/01/25 04:35:44;;;;;;;4.22;3.47;;;;;;;0.61;100.00;62061.50;4988702;28;20389;-79
2023/01/25 04:38:12;;;;;;;4.32;3.28;;;;;;;0.51;100.00;62050.72;4991974;28;20259;-79
2023/01/25 04:40:41;;;;;;;4.38;3.90;;;;;;;0.71;100.00;62071.22;4986739;28;20271;-79
2023/01/25 04:43:08;;;;;;;4.30;3.78;;;;;;;0.67;100.00;62067.66;4988844;28;20231;-77
2023/01/25 04:45:35;;;;;;;4.65;3.72;;;;;;;0.67;100.00;62067.13;4989096;28;20200;-78
2023/01/25 04:48:08;;;;;;;3.33;3.03;;;;;;;0.48;100.00;62047.66;5002578;28;20320;-79
2023/01/25 04:50:36;;;;;;;6.30;3.38;;;;;;;0.55;100.00;62057.84;4994343;28;20411;-77
2023/01/25 04:53:03;;;;;;;3.30;3.05;;;;;;;0.58;100.00;62060.94;4991191;28;20228;-78
2023/01/25 04:55:31;;;;;;;5.50;3.40;;;;;;;0.50;100.00;62049.72;5001587;28;20271;-80
2023/01/25 04:58:00;;;;;;;4.18;3.28;;;;;;;0.63;100.00;62060.53;4997094;28;20223;-80
2023/01/25 05:00:29;;;;;;;3.63;2.88;;;;;;;0.47;100.00;62046.63;4986001;28;20231;-80
2023/01/25 05:02:57;;;;;;;5.05;3.13;;;;;;;0.42;100.00;62044.53;4988450;28;20223;-78
2023/01/25 05:05:24;;;;;;;4.22;3.30;;;;;;;0.55;100.00;62052.84;4992669;28;20222;-78
2023/01/25 05:07:51;;;;;;;4.35;3.38;;;;;;;0.46;100.00;62051.13;4976373;28;20268;-78
2023/01/25 05:10:18;;;;;;;3.58;3.25;;;;;;;0.40;100.00;62037.47;4984313;28;20508;-78
2023/01/25 05:12:46;;;;;;;3.67;2.80;;;;;;;0.33;100.00;62035.28;4988598;28;20228;-80
2023/01/25 05:15:15;;;;;;;4.35;2.90;;;;;;;0.44;100.00;62038.53;4988277;28;20215;-79
2023/01/25 05:17:42;;;;;;;3.78;3.30;;;;;;;0.57;100.00;62059.41;4987971;28;20637;-79
2023/01/25 05:20:11;;;;;;;7.00;3.67;;;;;;;0.69;100.00;62072.19;4990719;28;20556;-80
2023/01/25 05:22:38;;;;;;;6.63;5.68;;;;;;;0.53;100.00;62052.78;4986817;28;20224;-77
2023/01/25 05:26:59;;;;;;;4.60;3.78;;;;;;;0.65;100.00;62062.59;4985222;28;20208;-80
2023/01/25 05:27:52;;;;;;;5.13;3.80;;;;;;;0.38;100.00;62039.91;4986676;28;20235;-79
2023/01/25 05:30:21;;;;;;;4.15;3.75;;;;;;;0.42;100.00;62044.00;4988983;28;20216;-80
2023/01/25 05:32:49;;;;;;;5.20;3.75;;;;;;;0.43;100.00;62045.03;4988624;28;20216;-79
2023/01/25 05:35:17;;;;;;;4.35;3.28;;;;;;;0.39;100.00;62033.41;4983383;28;20257;-79
2023/01/25 05:37:43;;;;;;;6.30;4.05;;;;;;;0.41;100.00;62046.00;4983187;28;20485;-80
2023/01/25 05:40:11;;;;;;;6.20;3.92;;;;;;;0.40;100.00;62039.47;4988523;28;20248;-81
2023/01/25 05:42:38;;;;;;;4.35;3.95;;;;;;;0.35;100.00;62032.34;4986218;28;20240;-78
2023/01/25 05:45:07;;;;;;;5.75;4.20;;;;;;;0.44;100.00;62046.06;4972719;28;20564;-77
2023/01/25 05:47:35;;;;;;;5.10;4.38;;;;;;;0.60;100.00;62060.47;4987845;28;20224;-78
2023/01/25 05:50:02;;;;;;;6.45;4.43;;;;;;;0.71;100.00;62071.22;4989254;28;20505;-77
2023/01/25 05:52:29;;;;;;;4.63;4.18;;;;;;;0.72;100.00;62075.28;4987425;28;20493;-79
2023/01/25 05:54:57;;;;;;;5.53;4.05;;;;;;;0.74;100.00;62074.81;4988986;28;20551;-80
2023/01/25 05:57:24;;;;;;;4.38;3.97;;;;;;;0.76;100.00;62081.38;4987839;28;20235;-79
2023/01/25 05:59:51;;;;;;;5.45;4.57;;;;;;;0.95;100.00;62095.84;4982163;28;20236;-79
2023/01/25 06:02:18;;;;;;;7.00;4.18;;;;;;;1.04;100.00;62105.59;4986143;28;20250;-79
2023/01/25 06:04:47;;;;;;;5.65;4.63;;;;;;;1.06;100.00;62107.13;4987735;28;20215;-80
2023/01/25 06:07:14;;;;;;;5.50;4.18;;;;;;;0.93;100.00;62094.31;4982610;28;20232;-79
2023/01/25 06:09:41;;;;;;;5.63;5.00;;;;;;;1.05;100.00;62108.63;4977048;28;20219;-80
2023/01/25 06:12:09;;;;;;;5.43;4.30;;;;;;;0.96;100.00;62094.88;4979326;28;20224;-80
2023/01/25 06:14:36;;;;;;;7.80;4.90;;;;;;;1.08;100.00;62109.19;4976901;28;20232;-81
2023/01/25 06:17:03;;;;;;;6.63;4.93;;;;;;;0.83;100.00;62083.53;4976061;28;20307;-79
2023/01/25 06:19:30;;;;;;;5.45;4.95;;;;;;;0.93;100.00;62098.81;4980958;28;20232;-79
2023/01/25 06:21:58;;;;;;;4.32;3.92;;;;;;;1.02;100.00;62105.53;4971280;28;20302;-78
2023/01/25 06:24:25;;;;;;;4.45;4.00;;;;;;;1.09;100.00;62113.22;4980149;28;20216;-79
2023/01/25 06:26:52;;;;;;;5.07;4.20;;;;;;;1.09;100.00;62115.22;4979010;28;20260;-78
2023/01/25 06:29:19;;;;;;;5.43;4.20;;;;;;;0.95;100.00;62095.84;4976324;28;20208;-80
2023/01/25 06:31:46;;;;;;;5.45;4.47;;;;;;;0.68;100.00;62071.19;4972810;28;20227;-80
2023/01/25 06:34:13;;;;;;;5.55;4.43;;;;;;;0.86;100.00;62084.63;4986838;28;20227;-79
2023/01/25 06:36:40;;;;;;;6.22;4.75;;;;;;;0.83;100.00;62081.03;4981538;28;20219;-78
2023/01/25 06:39:09;;;;;;;7.60;5.68;;;;;;;0.87;100.00;62090.66;4979041;28;20509;-80
2023/01/25 06:41:37;;;;;;;8.52;5.78;;;;;;;0.87;100.00;62090.66;4970690;28;20268;-79
2023/01/25 06:44:04;;;;;;;5.82;4.93;;;;;;;0.82;100.00;62083.03;4967958;28;20211;-78
2023/01/25 06:46:32;;;;;;;4.95;4.45;;;;;;;0.80;100.00;62085.47;4972119;28;20294;-80
2023/01/25 06:49:00;;;;;;;7.78;4.82;;;;;;;0.81;100.00;62084.50;4976544;28;20213;-79
2023/01/25 06:51:27;;;;;;;5.05;4.63;;;;;;;0.89;100.00;62090.22;4977243;28;20259;-80
2023/01/25 06:53:54;;;;;;;6.10;5.05;;;;;;;0.99;100.00;62104.97;4981367;28;20192;-80
2023/01/25 06:56:23;;;;;;;5.50;4.88;;;;;;;1.09;100.00;62115.22;4990118;28;20232;-80
2023/01/25 06:58:50;;;;;;;7.50;5.28;;;;;;;1.06;100.00;62107.66;4976457;28;20192;-78
2023/01/25 07:01:19;;;;;;;5.50;4.70;;;;;;;0.96;100.00;62101.91;4982286;28;20254;-79
2023/01/25 07:03:49;;;;;;;6.45;5.82;;;;;;;0.96;100.00;62094.88;4986358;28;20211;-80
2023/01/25 07:06:16;;;;;;;8.60;5.72;;;;;;;0.84;100.00;62085.09;4981685;28;20271;-79
2023/01/25 07:08:43;;;;;;;8.18;6.32;;;;;;;0.71;100.00;62073.72;4975875;28;20257;-79
2023/01/25 07:11:12;;;;;;;10.18;6.15;;;;;;;0.78;100.00;62078.41;4978407;28;20287;-80
2023/01/25 07:13:42;;;;;;;8.68;6.63;;;;;;;0.67;100.00;62067.66;4983748;28;20208;-77
2023/01/25 07:16:14;;;;;;;9.45;7.05;;;;;;;0.61;100.00;62061.50;4977708;28;20252;-80
2023/01/25 07:18:42;;;;;;;11.02;6.05;;;;;;;0.80;100.00;62085.47;4980491;28;20234;-80
2023/01/25 07:21:11;;;;;;;9.82;7.05;;;;;;;0.60;100.00;62057.47;4988718;28;20350;-80
2023/01/25 07:23:38;;;;;;;8.80;6.88;;;;;;;0.67;100.00;62067.13;4980883;28;20207;-80
2023/01/25 07:26:07;;;;;;;15.00;10.35;;;;;;;0.79;100.00;62077.47;4985024;28;20243;-80
2023/01/25 07:28:34;;;;;;;22.88;13.75;;;;;;;0.72;100.00;62072.78;4989851;28;20231;-78
2023/01/25 07:31:07;;;;;;;12.98;7.80;;;;;;;0.76;100.00;62076.38;4979285;28;20440;-79
2023/01/25 07:33:34;;;;;;;11.43;7.53;;;;;;;1.02;100.00;62103.03;4984364;28;20261;-79
2023/01/25 07:36:04;;;;;;;7.50;6.50;;;;;;;1.12;100.00;62115.81;4980649;28;20559;-80
2023/01/25 07:38:31;;;;;;;9.48;6.93;;;;;;;1.17;100.00;62121.44;4980383;28;20271;-81
2023/01/25 07:40:58;;;;;;;10.73;6.70;;;;;;;1.30;100.00;62134.25;4982426;28;20498;-79
2023/01/25 07:43:26;;;;;;;8.77;7.13;;;;;;;1.18;100.00;62122.47;4986833;28;20238;-79
2023/01/25 07:45:53;;;;;;;8.27;6.70;;;;;;;0.92;100.00;62090.78;4985544;28;20200;-79
2023/01/25 07:48:22;;;;;;;10.63;6.95;;;;;;;0.90;100.00;62091.22;4981340;28;20266;-80
2023/01/25 07:51:10;;;;;;;11.30;7.15;;;;;;;1.10;100.00;62108.75;4989750;28;20204;-80
2023/01/25 07:53:36;;;;;;;8.25;7.03;;;;;;;1.21;100.00;62127.53;4991813;28;20250;-80
2023/01/25 07:56:03;;;;;;;9.43;7.25;;;;;;;1.06;100.00;62107.66;4991190;28;20234;-81
2023/01/25 07:58:30;;;;;;;9.35;7.05;;;;;;;1.14;100.00;62115.34;4991888;28;20200;-79
2023/01/25 08:00:57;;;;;;;9.07;7.35;;;;;;;1.26;100.00;62127.66;4990211;28;20532;-80
2023/01/25 08:03:25;;;;;;;13.18;8.35;;;;;;;1.34;100.00;62137.84;4994280;28;20200;-78
2023/01/25 08:05:53;;;;;;;10.20;7.03;;;;;;;1.50;100.00;62154.78;4993891;28;20345;-80
2023/01/25 08:08:21;;;;;;;10.68;8.27;;;;;;;1.49;100.00;62148.22;4992932;28;20272;-81
2023/01/25 08:10:47;;;;;;;8.95;6.63;;;;;;;1.32;100.00;62136.31;4977740;28;20264;-80
2023/01/25 08:13:15;;;;;;;8.63;6.88;;;;;;;1.19;100.00;62120.97;4974112;29;20201;-80
2023/01/25 08:15:42;;;;;;;12.70;7.88;;;;;;;1.37;100.00;62141.44;4981422;28;20516;-80
2023/01/25 08:18:09;;;;;;;14.15;9.15;;;;;;;1.19;100.00;62120.97;4992459;28;20204;-81
2023/01/25 08:20:38;;;;;;;15.35;9.73;;;;;;;1.06;100.00;62110.16;4992222;28;20246;-81
2023/01/25 08:23:05;;;;;;;17.48;10.02;;;;;;;1.05;100.00;62101.59;4993709;28;20196;-80
2023/01/25 08:25:32;;;;;;;13.88;9.07;;;;;;;1.14;100.00;62115.34;4976821;28;20232;-80
2023/01/25 08:27:59;;;;;;;21.65;10.82;;;;;;;1.19;100.00;62120.47;4973472;28;20228;-80
2023/01/25 08:30:26;;;;;;;17.83;10.20;;;;;;;1.24;100.00;62125.09;4974141;29;20204;-78
2023/01/25 08:32:54;;;;;;;16.13;9.70;;;;;;;1.35;100.00;62136.88;4984940;28;20234;-81
2023/01/25 08:35:21;;;;;;;15.40;10.25;;;;;;;1.45;100.00;62144.13;4992922;28;20219;-79
2023/01/25 08:37:50;;;;;;;12.88;9.52;;;;;;;1.66;100.00;62168.69;4975608;29;20242;-80
2023/01/25 08:40:17;;;;;;;12.48;8.07;;;;;;;1.60;100.00;62162.53;4973793;29;20272;-79
2023/01/25 08:42:47;;;;;;;10.40;8.25;;;;;;;1.64;100.00;62169.16;4984493;28;20231;-80
2023/01/25 08:45:14;;;;;;;12.88;9.07;;;;;;;1.43;100.00;62147.63;4990109;28;20200;-79
2023/01/25 08:47:42;;;;;;;12.25;10.05;;;;;;;1.39;100.00;62145.50;4989623;28;20239;-80
2023/01/25 08:50:10;;;;;;;16.88;10.27;;;;;;;1.45;100.00;62149.66;4991610;28;20232;-78
2023/01/25 08:52:37;;;;;;;15.43;9.82;;;;;;;1.40;100.00;62144.53;4992078;28;20223;-81
2023/01/25 08:55:06;;;;;;;12.85;10.20;;;;;;;1.47;100.00;62153.72;4990355;28;20205;-78
2023/01/25 08:57:33;;;;;;;14.27;10.02;;;;;;;1.69;100.00;62174.28;4990995;28;20231;-80
2023/01/25 09:00:00;;;;;;;16.90;10.73;;;;;;;1.78;100.00;62181.00;4991716;28;20252;-80
2023/01/25 09:02:27;;;;;;;16.45;10.52;;;;;;;1.71;100.00;62176.34;4991737;28;20224;-80
2023/01/25 09:04:55;;;;;;;13.23;10.60;;;;;;;1.41;100.00;62143.06;4992743;28;20200;-78
2023/01/25 09:07:22;;;;;;;13.57;8.90;;;;;;;1.69;100.00;62171.78;4991644;28;20243;-79
2023/01/25 09:09:49;;;;;;;14.05;8.93;;;;;;;1.62;100.00;62167.13;4978753;28;20276;-83
2023/01/25 09:12:18;;;;;;;12.90;8.93;;;;;;;1.82;100.00;62187.13;4973303;28;20309;-80
2023/01/25 09:14:46;;;;;;;14.30;11.07;;;;;;;1.82;100.00;62184.59;4976294;28;20208;-81
2023/01/25 09:17:13;;;;;;;15.45;10.35;;;;;;;1.88;100.00;62191.28;4990567;28;20220;-79
2023/01/25 09:19:41;;;;;;;15.85;10.45;;;;;;;1.85;100.00;62190.19;4987533;28;20243;-78
2023/01/25 09:22:08;;;;;;;12.48;9.43;;;;;;;1.87;100.00;62192.75;4991644;28;20248;-82
2023/01/25 09:24:35;;;;;;;12.85;9.77;;;;;;;1.66;100.00;62168.69;4990958;28;20493;-80
2023/01/25 09:27:02;;;;;;;12.70;10.07;;;;;;;1.93;100.00;62193.41;4985546;28;20425;-79
2023/01/25 09:29:31;;;;;;;12.68;9.88;;;;;;;2.02;100.00;62207.66;4970802;29;20197;-79
2023/01/25 09:31:58;;;;;;;12.60;9.73;;;;;;;2.24;100.00;62227.75;4970536;29;20370;-80
2023/01/25 09:34:25;;;;;;;12.65;9.27;;;;;;;2.41;100.00;62245.19;4971076;28;20536;-79
2023/01/25 09:36:52;;;;;;;12.60;9.38;;;;;;;2.43;100.00;62244.22;4981611;28;20555;-80
2023/01/25 09:39:21;;;;;;;14.73;10.15;;;;;;;2.17;100.00;62223.56;4992363;28;20214;-81
2023/01/25 09:42:14;;;;;;;15.52;10.43;;;;;;;2.19;100.00;62223.09;4991211;28;20279;-81
2023/01/25 09:44:59;;;;;;;9.55;8.20;;;;;;;2.06;100.00;62211.75;4989450;28;20196;-80
2023/01/25 09:47:32;;;;;;;9.88;8.55;;;;;;;2.01;100.00;62209.13;4991010;28;20224;-81
2023/01/25 09:50:17;;;;;;;12.55;9.23;;;;;;;1.97;100.00;62200.00;4989969;28;20355;-80
2023/01/25 09:53:05;;;;;;;13.18;10.07;;;;;;;2.16;100.00;62224.53;4971055;29;20248;-82
2023/01/25 09:55:33;;;;;;;13.63;9.93;;;;;;;2.07;100.00;62212.78;4971923;28;20219;-81
2023/01/25 09:58:02;;;;;;;12.13;9.30;;;;;;;1.99;100.00;62204.56;4971098;29;20569;-82
2023/01/25 10:00:33;;;;;;;12.05;9.05;;;;;;;2.17;100.00;62225.56;4984373;28;20407;-81
2023/01/25 10:03:11;;;;;;;12.15;8.98;;;;;;;2.26;100.00;62230.28;4970106;28;20247;-82
2023/01/25 10:05:44;;;;;;;14.60;10.57;;;;;;;2.30;100.00;62234.41;4982421;28;20429;-80
2023/01/25 10:08:19;;;;;;;14.07;9.63;;;;;;;2.39;100.00;62243.13;4983369;28;20196;-84
2023/01/25 10:10:51;;;;;;;10.68;8.60;;;;;;;2.41;100.00;62242.69;4984266;28;20211;-81
2023/01/25 10:13:22;;;;;;;11.15;8.55;;;;;;;2.57;100.00;62259.13;4984323;28;20209;-83
2023/01/25 10:15:53;;;;;;;9.82;8.00;;;;;;;2.62;100.00;62271.28;4975846;28;20212;-82
2023/01/25 10:18:27;;;;;;;13.18;8.75;;;;;;;2.61;100.00;62265.22;4983388;28;20235;-81
2023/01/25 10:20:58;;;;;;;10.18;7.72;;;;;;;2.66;100.00;62270.88;4978442;28;20523;-80
2023/01/25 10:23:52;;;;;;;8.90;7.00;;;;;;;2.49;100.00;62258.44;4980347;28;20247;-84
2023/01/25 10:26:25;;;;;;;8.15;7.15;;;;;;;2.66;100.00;62270.88;4978382;28;20236;-83
2023/01/25 10:29:00;;;;;;;8.82;7.53;;;;;;;2.38;100.00;62245.13;4980315;28;20204;-82
2023/01/25 10:31:37;;;;;;;8.77;7.47;;;;;;;2.64;100.00;62273.84;4984023;28;20271;-83
2023/01/25 10:34:16;;;;;;;7.25;6.55;;;;;;;2.78;100.00;62283.19;4982013;28;20197;-81
2023/01/25 10:36:51;;;;;;;8.38;7.20;;;;;;;2.92;100.00;62302.09;4987518;28;20287;-82
2023/01/25 10:39:20;;;;;;;8.15;6.90;;;;;;;2.95;100.00;62300.16;4977523;28;20199;-83
2023/01/25 10:41:51;;;;;;;8.20;6.38;;;;;;;3.13;100.00;62319.16;4982512;28;20263;-82
2023/01/25 10:44:24;;;;;;;10.07;6.88;;;;;;;2.61;100.00;62268.25;4985280;28;20227;-84
2023/01/25 10:46:59;;;;;;;8.18;7.35;;;;;;;2.95;100.00;62300.16;4982441;28;20243;-82
2023/01/25 10:49:42;;;;;;;7.63;6.90;;;;;;;3.07;100.00;62312.50;4977343;28;20403;-80
2023/01/25 10:52:21;;;;;;;7.72;7.03;;;;;;;3.12;100.00;62318.13;4988961;28;20227;-81
2023/01/25 10:54:50;;;;;;;10.77;7.25;;;;;;;3.12;100.00;62320.16;4991152;28;20228;-83
2023/01/25 10:57:23;;;;;;;8.13;7.30;;;;;;;3.02;100.00;62307.34;4991740;28;20231;-83
2023/01/25 10:59:52;;;;;;;8.30;7.53;;;;;;;3.28;100.00;62334.06;4993587;28;20272;-82
2023/01/25 11:02:54;;;;;;;8.35;6.72;;;;;;;3.27;100.00;62333.56;4975422;28;20228;-84
2023/01/25 11:05:30;;;;;;;6.75;6.15;;;;;;;3.44;100.00;62350.53;4931392;28;20214;-83
2023/01/25 11:08:16;;;;;;;8.63;6.25;;;;;;;3.58;100.00;62364.41;4973507;28;20220;-81
2023/01/25 11:10:46;;;;;;;6.93;6.22;;;;;;;3.59;100.00;62368.47;4973033;29;20212;-81
2023/01/25 11:13:24;;;;;;;6.32;5.72;;;;;;;3.68;100.00;62374.69;4984134;28;20204;-82
2023/01/25 11:15:54;;;;;;;6.22;5.68;;;;;;;3.74;100.00;62378.88;4979490;28;20228;-84
2023/01/25 11:18:27;;;;;;;6.53;5.93;;;;;;;3.38;100.00;62344.88;4972208;28;20443;-82
2023/01/25 11:21:17;;;;;;;8.38;5.95;;;;;;;3.32;100.00;62343.75;4972305;28;20229;-82
2023/01/25 11:24:00;;;;;;;6.60;5.40;;;;;;;3.21;100.00;62329.41;4972253;28;20219;-82
2023/01/25 11:26:32;;;;;;;5.85;5.28;;;;;;;3.44;100.00;62356.06;4971911;28;20225;-83
2023/01/25 11:29:16;;;;;;;6.50;5.90;;;;;;;3.33;100.00;62341.75;4970851;28;20201;-83
2023/01/25 11:31:46;;;;;;;6.55;5.28;;;;;;;3.42;100.00;62353.50;4989127;28;20582;-82
2023/01/25 11:34:19;;;;;;;8.63;6.93;;;;;;;3.63;100.00;62370.06;4995488;28;20223;-82
2023/01/25 11:37:10;;;;;;;5.80;5.30;;;;;;;3.64;100.00;62378.13;4993633;28;20250;-83
2023/01/25 11:39:49;;;;;;;5.82;5.25;;;;;;;3.68;100.00;62375.19;4975118;28;20211;-82
2023/01/25 11:42:30;;;;;;;6.22;5.35;;;;;;;3.33;100.00;62337.22;4974459;28;20248;-82
2023/01/25 11:45:40;;;;;;;5.13;4.63;;;;;;;3.17;100.00;62325.81;4974587;29;20204;-82